Aérodrome :
LOGIN :

S'inscrire | Disclaimer

   EN    FR    IT 

 










Légende :    VFR   VFR Marginal   IFR   IFR Intensif   IFR Très Intensif
Visi : 
Plafond : 
>= 8 km
>= 3000ft
5 à 8 km
1000 à 3000 ft
1500m à 5 km
500 à 1000 ft
800 à 1500m
200 à 500 ft
< 800m
< 200 ft
Symboles :   Orages  Brouillard  Fortes neiges  Fortes précipitations  Vent > 20 kt
SIGMETs :   Divers  Orages  Givrage  Turbulence  Onde Orograph.  Cendres Volcan.







- Altitude de l'aérodrome : 479 ft
- Code IATA : DOL
- Voir les cartes d'approche


LFRG - Deauville

DERNIER METAR :
  • 280800Z AUTO 36006KT 330V030 9999 BKN016 BKN026 BKN034 09/05 Q1017 TEMPO SHRA BKN012

METARs EXPIRÉS :
  • 280730Z AUTO 35005KT 310V030 9999 SCT017 BKN024 BKN035 09/06 Q1017 TEMPO SHRA BKN012
  • 280700Z AUTO 01006KT 320V060 9999 BKN017 BKN026 BKN058 10/06 Q1017 TEMPO RA BKN012
  • 280630Z AUTO 36004KT 310V040 9999 BKN016 BKN021 OVC070 09/06 Q1017 TEMPO RA BKN012
  • 280600Z AUTO VRB02KT 9999 BKN018 BKN026 OVC070 08/06 Q1017 TEMPO RA BKN012
  • 280530Z AUTO VRB02KT 9999 FEW018/// OVC066/// ///TCU 08/06 Q1017 TEMPO RA BKN012

TAF TAF LFRG
Valide du 28 à 06h jusqu'au 28 à 15h UTC


280500Z 2806/2815 VRB03KT 9999 BKN020
BECMG 2807/2809 31010KT
TEMPO 2806/2809 5000 RA BKN012
TEMPO 2809/2811 5000 SHRA
ATIS : +33 2 31 65 65 36
Pas de NOTAMs connus pour ce terrain.



MET'MAP, la Météo Aéronautique d'un coup d'oeil ! - Copyright ORBIFLY Décembre 2007 - Disclaimer

ORBIFLY MET'MAP TEAM :

Programmation & Développement : Alexandra Zaïnal
Conception & Développement : Baudouin d'Aumeries
Co-Programmation & Développement : Marc-Olivier Méhu
Soutien technique & logistique : Manuel Goepfert

Contact : metmap@orbifly.com




SOURCES & CREDITS :

   NOAA